x

Gooses Reef, Md (44062) Weather Station

2:50pm - Wed 26th Nov 2014 All times are EST. -5 hours from GMT.

  • Wind
    29mph, 34mph gusts
  • Air Temp 40°f
  • Sea Pressure 1009.6mb
  • Gooses Reef, Md
  • Gooses Reef, Md

More Historic Weather Station data

Upgrade to MSW Pro to gain access to the past 30 days of data for over 8000 Wavebouys and Weather Stations around the globe.

Join Pro

Comparision Forecast

View Surf forecast
   
Wed 11/26 2:50pm  -   -  29 34 mph 1009.6mb - 40f
2:40pm  -   -  27 36 mph 1009.4mb - 40f
2:30pm  -   -  27 34 mph 1009.3mb - 40f
2:20pm  -   -  31 36 mph 1008.8mb - 40f
2:10pm  -   -  27 34 mph 1010.1mb - 40f
2:00pm 3.5ft 3s 27 34 mph 1010.7mb 48f 40f
1:50pm  -   -  27 31 mph 1011.1mb - 40f
1:40pm  -   -  25 31 mph 1011.2mb - 40f
1:30pm  -   -  27 31 mph 1010.7mb - 39f
1:20pm  -   -  27 34 mph 1010.8mb - 39f
1:10pm  -   -  27 31 mph 1011.6mb - 39f
1:00pm 3ft 3s 27 36 mph 1011.6mb 48f 39f
12:50pm  -   -  29 34 mph 1011.7mb - 39f
12:40pm  -   -  27 31 mph 1012.6mb - 38f
12:30pm  -   -  25 29 mph 1013.5mb - 38f
12:20pm  -   -  27 31 mph 1014mb - 38f
12:10pm  -   -  27 36 mph 1014.8mb - 39f
12:00pm 2.5ft 3s 29 34 mph 1013.9mb 48f 39f
11:50am  -   -  27 34 mph 1014.1mb - 39f
11:40am  -   -  27 36 mph 1015.2mb - 40f
11:30am  -   -  27 34 mph 1016mb - 40f
11:20am  -   -  27 31 mph 1015.5mb - 40f
11:10am  -   -  25 31 mph 1016mb - 41f
11:00am 2.5ft 3s 27 31 mph 1016.4mb 49f 41f
10:50am  -   -  25 29 mph 1016.5mb - 41f
10:40am  -   -  27 31 mph 1015.9mb - 41f
10:30am  -   -  25 29 mph 1016.8mb - 41f
10:20am  -   -  25 29 mph 1016.8mb - 41f
10:10am  -   -  22 29 mph 1016.8mb - 41f
10:00am 2.5ft 3s 25 29 mph 1016.5mb 49f 41f
9:50am  -   -  25 29 mph 1016.5mb - 41f
9:40am  -   -  25 29 mph 1016.5mb - 41f
9:30am  -   -  22 29 mph 1016.8mb - 41f
9:20am  -   -  22 27 mph 1017.4mb - 41f
9:10am  -   -  25 29 mph 1017.9mb - 42f
9:00am 2.5ft 3s 25 29 mph 1018.8mb 49f 42f
8:50am  -   -  22 27 mph 1018.6mb - 42f
8:40am  -   -  20 25 mph 1018.2mb - 43f
8:30am  -   -  20 25 mph 1017.9mb - 43f
8:20am  -   -  18 25 mph 1018mb - 43f
8:10am  -   -  25 29 mph 1016.9mb - 43f
8:00am 1.6ft 3s 20 25 mph 1017.2mb 49f 43f
7:50am  -   -  20 27 mph 1016.8mb - 43f
7:40am  -   -  18 22 mph 1017.7mb - 44f
7:30am  -   -  18 20 mph 1018mb - 44f
7:20am  -   -  18 22 mph 1018.2mb - 44f
7:10am  -   -  18 20 mph 1018.2mb - 44f
7:00am 1.6ft 3s 18 22 mph 1018mb 49f 44f
6:50am  -   -  18 22 mph 1018.1mb - 44f
6:40am  -   -  20 22 mph 1017.9mb - 44f
6:30am  -   -  18 22 mph 1018.2mb - 44f
6:20am  -   -  18 20 mph 1018.3mb - 44f
6:10am  -   -  18 20 mph 1018.4mb - 45f
6:00am 1.3ft 2s 18 20 mph 1018.4mb 49f 45f
5:50am  -   -  16 20 mph 1018.6mb - 45f
5:40am  -   -  18 20 mph 1018.5mb - 45f
5:30am  -   -  16 20 mph 1018.5mb - 45f
5:20am  -   -  18 20 mph 1018.7mb - 45f
5:10am  -   -  16 20 mph 1018.8mb - 46f
5:00am 0.3ft  -  13 16 mph 1018.9mb 49f 46f
4:50am  -   -  11 16 mph 1019.2mb - 46f
4:40am  -   -  11 13 mph 1019mb - 46f
4:30am  -   -  9 13 mph 1018.8mb - 47f
4:20am  -   -  11 13 mph 1018.4mb - 47f
4:10am  -   -  9 11 mph 1018.9mb - 47f
4:00am  -   -  9 11 mph 1018.7mb 49f 47f
3:50am  -   -  7 11 mph 1018.5mb - 47f
3:40am  -   -  7 11 mph 1018.3mb - 48f
3:30am  -   -  9 11 mph 1018.1mb - 48f
3:20am  -   -  4 11 mph 1018.6mb - 47f
3:10am  -   -  4
mph
1019mb - 48f
3:00am  -   -  4 9 mph 1019.1mb 49f 47f
2:50am  -   -  4 9 mph 1019.4mb - 47f
2:40am  -   -  7 9 mph 1019.9mb - 48f
2:30am  -   -  4 9 mph 1020mb - 48f
2:20am  -   -  4 9 mph 1020.5mb - 48f
2:10am  -   -  2 7 mph 1021mb - 48f
2:00am 0.3ft  -  2 4 mph 1021mb 49f 48f
1:50am  -   -  2 9 mph 1021.1mb - 48f
1:40am  -   -  4 9 mph 1020.9mb - 49f
1:30am  -   -  9 13 mph 1020.5mb - 48f
1:20am  -   -  11 16 mph 1020.7mb - 49f
1:10am  -   -  9 13 mph 1020.9mb - 48f
1:00am  -   -  2 4 mph 1021.1mb 49f 49f
12:50am  -   -   -  4 mph 1021.1mb - 49f
12:40am  -   -   -  mph 1021.2mb - 49f
12:30am  -   -   -  mph 1021.4mb - 48f
12:20am  -   -   -  mph 1021.4mb - 49f
12:10am  -   -   -  mph 1021.5mb - 48f
12:00am 0.3ft  -   -  mph 1021.5mb 49f 48f
Tue 11/25 11:50pm  -   -   -  mph 1021.6mb - 48f
11:40pm  -   -   -  mph 1021.6mb - 48f
11:30pm  -   -   -  mph 1021.7mb - 48f
11:20pm  -   -   -  mph 1021.5mb - 49f
11:10pm  -   -   -  mph 1021.8mb - 48f
11:00pm 0.3ft  -   -  mph 1021.5mb 49f 48f
10:50pm  -   -   -  mph 1021.3mb - 48f
10:40pm  -   -   -  mph 1021.5mb - 48f
10:30pm  -   -   -  mph 1021.6mb - 49f
10:20pm  -   -   -  mph 1021.6mb - 49f
10:10pm  -   -   -  mph 1021.7mb - 49f
10:00pm  -   -   -  mph 1021.9mb 49f 49f
9:50pm  -   -   -  mph 1021.8mb - 49f
9:40pm  -   -   -  mph 1021.3mb - 49f
9:30pm  -   -   -  mph 1020.9mb - 49f
9:20pm  -   -   -  mph 1020.8mb - 49f
9:10pm  -   -   -  mph 1020.8mb - 49f
9:00pm  -   -   -  mph 1020.6mb 49f 49f
8:50pm  -   -   -  mph 1020.8mb - 49f
8:40pm  -   -   -  2 mph 1020.8mb - 49f
8:30pm  -   -   -  mph 1020.5mb - 49f
8:20pm  -   -   -  mph 1020.2mb - 49f
8:10pm  -   -   -  mph 1020.4mb - 49f
8:00pm  -   -   -  mph 1020.1mb 49f 49f
7:50pm  -   -   -  mph 1020.2mb - 49f
7:40pm  -   -   -  mph 1020.3mb - 49f
7:30pm  -   -   -  mph 1020.3mb - 49f
7:20pm  -   -   -  2 mph 1020.5mb - 50f
7:10pm  -   -  2 4 mph 1020.5mb - 49f
7:00pm 0.3ft  -   -  4 mph 1020.5mb 49f 49f
6:50pm  -   -  2 4 mph 1019.9mb - 49f
6:40pm  -   -   -  2 mph 1019.7mb - 49f
6:30pm  -   -   -  mph 1019.5mb - 49f
6:20pm  -   -   -  mph 1019.4mb - 49f
6:10pm  -   -   -  2 mph 1019.3mb - 50f
6:00pm 0.3ft  -  2 4 mph 1019.2mb 49f 50f
5:50pm  -   -   -  2 mph 1019.2mb - 50f
5:40pm  -   -  2 4 mph 1018.9mb - 50f
5:30pm  -   -  4 9 mph 1018.9mb - 49f
5:20pm  -   -  4 9 mph 1018.9mb - 49f
5:10pm  -   -  2 4 mph 1019.1mb - 49f
5:00pm 0.3ft  -  2 7 mph 1018.8mb 49f 49f
4:50pm  -   -  2
mph
1018.6mb - 49f
4:40pm  -   -  2 4 mph 1018.6mb - 49f
4:30pm  -   -  2 4 mph 1018.3mb - 49f
4:20pm  -   -   -  2 mph 1018.6mb - 49f
4:10pm  -   -   -  mph 1018.5mb - 50f
4:00pm 0.3ft  -   -  2 mph 1018.5mb 49f 50f
3:50pm  -   -   -  2 mph 1018.3mb - 50f
3:40pm  -   -   -  2 mph 1018mb - 50f
3:30pm  -   -  2 4 mph 1017.8mb - 50f
3:20pm  -   -  2 4 mph 1017.9mb - 50f
3:10pm  -   -  4
mph
1017.7mb - 50f
3:00pm 0.3ft  -  4
mph
1017.8mb 49f 50f
2:50pm  -   -  4 7 mph 1017.7mb - 50f
2:40pm  -   -  4 7 mph 1017.8mb - 50f
2:30pm  -   -  7 9 mph 1017.6mb - 50f
2:20pm  -   -  7 9 mph 1017.6mb - 50f
2:10pm  -   -  4 7 mph 1017.6mb - 50f
2:00pm 0.3ft  -  4 9 mph 1017.4mb 49f 50f
1:50pm  -   -  4 9 mph 1017.5mb - 50f
1:40pm  -   -  7 9 mph 1017.5mb - 50f
1:30pm  -   -  4
mph
1017.8mb - 50f
1:20pm  -   -   -  4 mph 1017.9mb - 50f
1:10pm  -   -  4
mph
1018mb - 50f
1:00pm 0.7ft  -  4
mph
1018.1mb 49f 50f
12:50pm  -   -  4 9 mph 1018.2mb - 50f
12:40pm  -   -  9
mph
1018mb - 51f
12:30pm  -   -  7 9 mph 1018.3mb - 50f
12:20pm  -   -  4 9 mph 1018.5mb - 51f
12:10pm  -   -  2 7 mph 1018.7mb - 51f
12:00pm 1ft 2s 7 9 mph 1018.6mb 49f 51f
11:50am  -   -  7 9 mph 1018.7mb - 51f
11:40am  -   -  4 9 mph 1018.7mb - 50f
11:30am  -   -  4 9 mph 1018.8mb - 50f
11:20am  -   -  7 9 mph 1018.7mb - 51f
11:10am  -   -  7 11 mph 1018.7mb - 51f
11:00am 1ft 2s 9 13 mph 1018.6mb 49f 51f
10:50am  -   -  13
mph
1018.6mb - 51f
10:40am  -   -  13 16 mph 1018.3mb - 51f
10:30am  -   -  13 16 mph 1018.4mb - 51f
10:20am  -   -  11 13 mph 1018.1mb - 51f
10:10am  -   -  9 13 mph 1018.3mb - 51f
10:00am 1ft 2s 11 13 mph 1018.3mb 49f 51f
9:50am  -   -  9 13 mph 1018mb - 51f
9:40am  -   -  9 11 mph 1018mb - 52f
9:30am  -   -  13 16 mph 1017.8mb - 52f
9:20am  -   -  13 16 mph 1017.7mb - 52f
9:10am  -   -  16 18 mph 1017.2mb - 53f
9:00am 1ft 2s 13 18 mph 1017.1mb 49f 52f
8:50am  -   -  11 16 mph 1017.1mb - 52f
8:40am  -   -  4 11 mph 1017mb - 52f
8:30am  -   -   -  mph 1017mb - 52f
8:20am  -   -  2 9 mph 1016.5mb - 52f
8:10am  -   -  7 9 mph 1016.3mb - 52f
8:00am 1.3ft 2s 9
mph
1016mb 49f 52f
7:50am  -   -  9 11 mph 1015.7mb - 52f
7:40am  -   -  9 11 mph 1015.4mb - 53f
7:30am  -   -  9 11 mph 1015.4mb - 53f
7:20am  -   -  11 13 mph 1015.1mb - 53f
7:10am  -   -  13 16 mph 1014.9mb - 53f
7:00am 1ft 2s 13 18 mph 1014.4mb 49f 53f
6:50am  -   -  16 20 mph 1014mb - 54f
6:40am  -   -  16 18 mph 1014.1mb - 54f
6:30am  -   -  18 20 mph 1014.1mb - 55f
6:20am  -   -  18 20 mph 1013.9mb - 55f
6:10am  -   -  11 18 mph 1013.9mb - 54f
6:00am 0.7ft  -  4 9 mph 1013.7mb 49f 55f
5:50am  -   -  4 9 mph 1013.4mb - 56f
5:40am  -   -  4 9 mph 1013.2mb - 57f
5:30am  -   -  2 9 mph 1013mb - 58f
5:20am  -   -  7 11 mph 1012.9mb - 58f
5:10am  -   -  9 11 mph 1012.7mb - 58f
5:00am 0.7ft  -  4 9 mph 1012.7mb 49f 59f
4:50am  -   -  4 13 mph 1012.8mb - 57f
4:40am  -   -   -  4 mph 1012.7mb - 54f
4:30am  -   -  4 9 mph 1012.6mb - 53f
4:20am  -   -  7 9 mph 1012.5mb - 53f
4:10am  -   -  7 9 mph 1012.2mb - 53f
4:00am 1ft 2s 9 11 mph 1011.9mb 49f 53f
3:50am  -   -  9 11 mph 1011.5mb - 53f
3:40am  -   -  11 13 mph 1011.5mb - 53f
3:30am  -   -  11 13 mph 1011.5mb - 52f
3:20am  -   -  11 13 mph 1011.3mb - 52f
3:10am  -   -  11 13 mph 1011.4mb - 53f
3:00am 1ft 2s 11 13 mph 1011.5mb 49f 53f
2:50am  -   -  13 16 mph 1011.2mb - 53f
2:40am  -   -  13 16 mph 1011.1mb - 53f
2:30am  -   -  13
mph
1011mb - 53f
2:20am  -   -  11 13 mph 1010.9mb - 53f
2:10am  -   -  13
mph
1010.7mb - 53f
2:00am 0.7ft  -  13 16 mph 1010.7mb 49f 53f
1:50am  -   -  11 16 mph 1010.4mb - 54f
1:40am  -   -  7 9 mph 1010.2mb - 56f
1:30am  -   -  9
mph
1009.9mb - 57f
1:20am  -   -  9 11 mph 1009.8mb - 57f
1:10am  -   -  9
mph
1009.5mb - 57f
1:00am 1ft 3s 9
mph
1009.5mb 49f 57f
12:50am  -   -  7 9 mph 1009.6mb - 57f
12:40am  -   -  9
mph
1009.8mb - 57f
12:30am  -   -  9 11 mph 1009.7mb - 57f
12:20am  -   -  9 11 mph 1009.3mb - 57f
12:10am  -   -  9 11 mph 1009.1mb - 57f
12:00am 1ft 3s 9 11 mph 1008.7mb 49f 57f
Mon 11/24 11:50pm  -   -  9
mph
1008.6mb - 58f
11:40pm  -   -  9 11 mph 1008.9mb - 58f
11:30pm  -   -  9 13 mph 1009.3mb - 60f
11:20pm  -   -  13 20 mph 1009.6mb - 61f
11:10pm  -   -  16
mph
1010mb - 60f
11:00pm 1.3ft 3s 16 18 mph 1010mb 49f 60f
10:50pm  -   -  16 18 mph 1010mb - 60f
10:40pm  -   -  16 20 mph 1010mb - 60f
10:30pm  -   -  13 18 mph 1010mb - 59f
10:20pm  -   -  18 20 mph 1009.7mb - 61f
10:10pm  -   -  18 22 mph 1009.5mb - 61f
10:00pm 1.6ft 3s 18 22 mph 1009.3mb 49f 62f
9:50pm  -   -  18 25 mph 1009.2mb - 62f
9:40pm  -   -  18 22 mph 1009mb - 62f
9:30pm  -   -  18 22 mph 1009mb - 61f
9:20pm  -   -  18 22 mph 1008.9mb - 61f
9:10pm  -   -  18 20 mph 1008.5mb - 60f
9:00pm 1.3ft 3s 16 18 mph 1007.7mb 49f 60f
8:50pm  -   -  9 20 mph 1007.6mb - 60f
8:40pm  -   -   -  mph 1007.7mb - 57f
8:30pm  -   -  9 13 mph 1008.3mb - 56f
8:20pm  -   -  11 13 mph 1008.6mb - 55f
8:10pm  -   -  11 13 mph 1008.3mb - 54f
8:00pm 1ft 2s 11 16 mph 1008mb 49f 55f
7:50pm  -   -  11 13 mph 1007.9mb - 55f
7:40pm  -   -  13 16 mph 1007.6mb - 56f
7:30pm  -   -  11 13 mph 1007.4mb - 54f
7:20pm  -   -  11 13 mph 1007.3mb - 54f
7:10pm  -   -  9 11 mph 1007.2mb - 54f
7:00pm 1ft 2s 11
mph
1007mb 49f 53f
6:50pm  -   -  9 11 mph 1006.5mb - 53f
6:40pm  -   -  11
mph
1006.3mb - 53f
6:30pm  -   -  11 13 mph 1006.2mb - 54f
6:20pm  -   -  11 13 mph 1006.4mb - 54f
6:10pm  -   -  11 13 mph 1006.4mb - 55f
6:00pm 1.3ft 2s 11 13 mph 1006.2mb 49f 55f
5:50pm  -   -  13 16 mph 1006.1mb - 56f
5:40pm  -   -  13 16 mph 1006mb - 55f
5:30pm  -   -  13 16 mph 1005.8mb - 55f
5:20pm  -   -  13 16 mph 1005.6mb - 55f
5:10pm  -   -  13 16 mph 1005.5mb - 55f
5:00pm 1.6ft 3s 13 16 mph 1005.5mb 49f 55f
4:50pm  -   -  11 16 mph 1005.5mb - 55f
4:40pm  -   -  13 16 mph 1005.5mb - 57f
4:30pm  -   -  11 16 mph 1005.6mb - 55f
4:20pm  -   -  13 18 mph 1005.4mb - 57f
4:10pm  -   -  11 16 mph 1005.4mb - 59f
4:00pm 1.6ft 3s 16 18 mph 1005.2mb 49f 62f
3:50pm  -   -  16 20 mph 1005mb - 61f
3:40pm  -   -   -  mph 1005.2mb - 56f
3:30pm  -   -  11 16 mph 1005mb - 57f
3:20pm  -   -  11 18 mph 1004.9mb - 58f
3:10pm  -   -  16 20 mph 1004.7mb - 58f
3:00pm 2ft 3s 16 18 mph 1004.6mb 49f 56f
2:50pm  -   -  16 20 mph 1004.4mb - 56f
2:40pm  -   -  18 20 mph 1004.2mb - 54f
2:30pm  -   -  16 22 mph 1004.1mb - 54f
2:20pm  -   -  13 18 mph 1004.3mb - 55f
2:10pm  -   -  7 13 mph 1004.4mb - 56f
2:00pm 1.6ft 3s 11 18 mph 1004.5mb 49f 57f
1:50pm  -   -  11 18 mph 1004.7mb - 56f
1:40pm  -   -  13 16 mph 1004.7mb - 56f
1:30pm  -   -  11 16 mph 1004.8mb - 56f
1:20pm  -   -  9 13 mph 1004.9mb - 57f
1:10pm  -   -  9 16 mph 1005mb - 60f
1:00pm 1.3ft 3s 11 13 mph 1005.1mb 49f 60f
12:50pm  -   -  11 16 mph 1005.2mb - 61f
12:40pm  -   -  13 20 mph 1005.1mb - 61f
12:30pm  -   -  13 18 mph 1005.2mb - 60f
12:20pm  -   -  13 18 mph 1005.4mb - 60f
12:10pm  -   -  13 18 mph 1005.6mb - 60f
12:00pm 1.3ft 2s 16 18 mph 1005.7mb 49f 60f
11:50am  -   -  13 16 mph 1005.9mb - 59f
11:40am  -   -  16 20 mph 1005.9mb - 60f
11:30am  -   -  18 22 mph 1006.1mb - 61f
11:20am  -   -  16 18 mph 1006.4mb - 60f
11:10am  -   -  13 20 mph 1006.6mb - 60f
11:00am 1.3ft 2s 11 13 mph 1006.8mb 49f 58f
10:50am  -   -  11 13 mph 1006.9mb - 58f
10:40am  -   -  11 16 mph 1007mb - 58f
10:30am  -   -  11 16 mph 1007.1mb - 56f
10:20am  -   -  11 16 mph 1007.2mb - 53f
10:10am  -   -  11 16 mph 1007.2mb - 53f
10:00am 1.6ft 3s 11 16 mph 1007.2mb 49f 52f
9:50am  -   -  11 16 mph 1007.1mb - 52f
9:40am  -   -  13 18 mph 1007mb - 53f
9:30am  -   -  13 16 mph 1007mb - 52f
9:20am  -   -  13 16 mph 1006.9mb - 52f
9:10am  -   -  16 20 mph 1006.8mb - 53f
8:50am  -   -  16 20 mph 1006.6mb - 52f
8:40am  -   -  16 20 mph 1006.5mb - 52f
8:30am  -   -  18 20 mph 1006.5mb - 52f
8:20am  -   -  16 20 mph 1006.5mb - 51f
8:10am  -   -  18 20 mph 1006.3mb - 51f
8:00am 1.6ft 3s 18 20 mph 1006.2mb 49f 51f
7:50am  -   -  18 22 mph 1006.1mb - 51f
7:40am  -   -  18 20 mph 1006.2mb - 51f
7:30am  -   -  18 20 mph 1006.1mb - 51f
7:20am  -   -  18 22 mph 1006.2mb - 51f
7:10am  -   -  18 22 mph 1006mb - 51f
7:00am 1.6ft 3s 18 20 mph 1006.1mb 49f 51f
6:50am  -   -  20 22 mph 1006mb - 52f
6:40am  -   -  18 22 mph 1006mb - 52f
6:30am  -   -  18 20 mph 1006.1mb - 52f
6:20am  -   -  18 22 mph 1006.1mb - 52f
6:10am  -   -  18 20 mph 1006mb - 52f
6:00am 2ft 3s 18 22 mph 1006mb 49f 53f
5:50am  -   -  18 22 mph 1005.9mb - 53f
5:40am  -   -  18 20 mph 1006mb - 53f
5:30am  -   -  18 20 mph 1006mb - 53f
5:20am  -   -  20 22 mph 1006mb - 53f
5:10am  -   -  20 25 mph 1005.8mb - 53f
5:00am 2.5ft 3s 20 25 mph 1005.8mb 48f 53f
4:50am  -   -  20 22 mph 1006.1mb - 53f
4:40am  -   -  20 25 mph 1006.2mb - 53f
4:30am  -   -  22 25 mph 1006.2mb - 54f
4:20am  -   -  22 25 mph 1006.3mb - 54f
4:10am  -   -  22 25 mph 1006.2mb - 54f
4:00am 3ft 3s 25 27 mph 1006.3mb 48f 54f
3:50am  -   -  27 31 mph 1005.9mb - 54f
3:40am  -   -  29 34 mph 1005.8mb - 54f
3:30am  -   -  29 36 mph 1005.8mb - 54f
3:20am  -   -  29 34 mph 1005.5mb - 54f
3:00am 3ft 3s 27 34 mph 1005.4mb 48f 53f
2:50am  -   -  27 29 mph 1005.6mb - 53f
2:40am  -   -  27 31 mph 1005.8mb - 53f
2:30am  -   -  25 29 mph 1006mb - 53f
2:20am  -   -  22 29 mph 1006.3mb - 53f
2:10am  -   -  22 27 mph 1006mb - 52f
2:00am 2.5ft 3s 22 27 mph 1006.3mb 48f 52f
1:50am  -   -  22 27 mph 1006.7mb - 52f
1:40am  -   -  22 27 mph 1006.8mb - 53f
1:30am  -   -  25 29 mph 1007mb - 54f
1:20am  -   -  22 27 mph 1007.2mb - 54f
1:10am  -   -  22 27 mph 1007.6mb - 55f
1:00am 2.5ft 3s 22 29 mph 1008mb 48f 55f
12:50am  -   -  25 27 mph 1008.3mb - 55f
12:40am  -   -  25 29 mph 1008.6mb - 55f
12:30am  -   -  25 29 mph 1008.9mb - 56f
12:20am  -   -  25 27 mph 1009.4mb - 56f
12:10am  -   -  22 27 mph 1009.8mb - 56f
12:00am 1.6ft 3s 20 25 mph 1010.3mb 48f 55f
Sun 11/23 11:50pm  -   -  20 22 mph 1010.7mb - 55f
11:40pm  -   -  16 20 mph 1011mb - 54f
11:30pm  -   -  13 18 mph 1011.1mb - 53f
11:20pm  -   -  13 16 mph 1011.4mb - 52f
11:10pm  -   -  11 16 mph 1011.7mb - 52f
11:00pm 1ft 2s 11 13 mph 1012mb 48f 52f
10:50pm  -   -  7 11 mph 1012.4mb - 52f
10:40pm  -   -   -  2 mph 1013.1mb - 51f
10:30pm  -   -   -  mph 1013.6mb - 51f
10:20pm  -   -   -  4 mph 1014mb - 49f
10:10pm  -   -  2 4 mph 1014.3mb - 49f
10:00pm 0.7ft  -   -  mph 1014.6mb 47f 49f
9:50pm  -   -   -  mph 1014.8mb - 49f
9:40pm  -   -   -  mph 1014.9mb - 49f
9:30pm  -   -   -  mph 1015.1mb - 49f
9:20pm  -   -   -  mph 1015.5mb - 49f
9:10pm  -   -   -  mph 1015.9mb - 48f
9:00pm 0.3ft  -   -  mph 1016.1mb 48f 48f
8:50pm  -   -   -  mph 1016.2mb - 48f
8:40pm  -   -   -  mph 1016.3mb - 49f
8:30pm  -   -   -  mph 1016.5mb - 49f
8:20pm  -   -   -  mph 1016.8mb - 49f
8:10pm  -   -   -  mph 1016.9mb - 49f
8:00pm 0.7ft  -   -  mph 1017.1mb 48f 49f
7:50pm  -   -   -  mph 1017.3mb - 49f
7:40pm  -   -   -  2 mph 1017.5mb - 49f
7:30pm  -   -  4 9 mph 1017.5mb - 50f
7:20pm  -   -  7 11 mph 1017.9mb - 49f
7:10pm  -   -  11
mph
1018.1mb - 50f
7:00pm 0.7ft  -  11 13 mph 1018.3mb 48f 50f
6:50pm  -   -  9 11 mph 1018.3mb - 49f
6:40pm  -   -  9 11 mph 1018.2mb - 49f
6:30pm  -   -  9 11 mph 1018.3mb - 49f
6:20pm  -   -  9 11 mph 1018.5mb - 49f
6:10pm  -   -  11 13 mph 1019mb - 49f
6:00pm 1ft 2s 11 13 mph 1019mb 48f 49f
5:50pm  -   -  11 13 mph 1019.3mb - 50f
5:40pm  -   -  9 11 mph 1019.4mb - 49f
5:30pm  -   -  11 13 mph 1019.5mb - 49f
5:20pm  -   -  13
mph
1019.5mb - 49f
5:10pm  -   -  11 13 mph 1019.6mb - 49f
5:00pm 0.7ft  -  11 13 mph 1019.7mb 48f 49f
4:50pm  -   -  11 13 mph 1019.7mb - 49f
4:40pm  -   -  11 13 mph 1019.8mb - 49f
4:30pm  -   -  11
mph
1019.9mb - 49f
4:20pm  -   -  11
mph
1020mb - 48f
4:10pm  -   -  11 13 mph 1020.1mb - 48f
4:00pm 1ft 2s 11 13 mph 1020.2mb 48f 48f
3:50pm  -   -  9 11 mph 1020.4mb - 48f
3:40pm  -   -  11 13 mph 1020.4mb - 48f
3:30pm  -   -  13 16 mph 1020.3mb - 48f
3:20pm  -   -  13 16 mph 1020.3mb - 48f
3:10pm  -   -  13 16 mph 1020.4mb - 48f
3:00pm 1.3ft 3s 13 16 mph 1020.5mb 47f 48f
2:50pm  -   -  13 16 mph 1020.5mb - 49f
2:40pm  -   -  13 18 mph 1020.6mb - 49f
2:30pm  -   -  13 16 mph 1020.6mb - 49f
2:20pm  -   -  16 20 mph 1020.6mb - 49f
2:10pm  -   -  16 18 mph 1020.7mb - 48f
2:00pm 1.3ft 2s 16 20 mph 1021mb 48f 48f
1:50pm  -   -  16 20 mph 1021.1mb - 48f
1:40pm  -   -  16 20 mph 1021.1mb - 48f
1:30pm  -   -  13 16 mph 1021.3mb - 48f
1:20pm  -   -  13 16 mph 1021.4mb - 48f
1:10pm  -   -  13 16 mph 1021.5mb - 48f
1:00pm 1.3ft 2s 16 18 mph 1021.6mb 48f 48f
12:50pm  -   -  13 16 mph 1021.8mb - 48f
12:40pm  -   -  13 16 mph 1021.9mb - 48f
12:30pm  -   -  13 16 mph 1022.1mb - 48f
12:20pm  -   -  13 16 mph 1022.4mb - 48f
12:10pm  -   -  13 16 mph 1022.5mb - 48f
12:00pm 1ft 3s 7 11 mph 1022.9mb 47f 48f
11:50am  -   -  11 13 mph 1023mb - 47f
11:40am  -   -  9 11 mph 1023.3mb - 47f
11:30am  -   -  9 11 mph 1023.4mb - 47f
11:20am  -   -  9 11 mph 1023.5mb - 47f
11:10am  -   -  4 9 mph 1023.7mb - 48f
11:00am 1ft 3s 2 7 mph 1023.8mb 47f 48f
10:50am  -   -  2 9 mph 1023.8mb - 48f
10:40am  -   -   -  4 mph 1023.9mb - 47f
10:30am  -   -   -  4 mph 1024mb - 47f
10:20am  -   -   -  mph 1024.2mb - 48f
10:10am  -   -   -  mph 1024.3mb - 47f
10:00am 0.7ft  -   -  mph 1024.4mb 47f 47f
9:50am  -   -   -  mph 1024.3mb - 47f
9:40am  -   -   -  mph 1024.4mb - 47f
9:30am  -   -   -  mph 1024.4mb - 47f
9:20am  -   -   -  2 mph 1024.5mb - 47f
9:10am  -   -   -  2 mph 1024.5mb - 47f
9:00am 1ft 3s  -  7 mph 1024.6mb 47f 47f
8:50am  -   -  4 7 mph 1024.6mb - 47f
8:40am  -   -  2 9 mph 1024.6mb - 47f
8:30am  -   -  2 7 mph 1024.7mb - 47f
8:20am  -   -  4 7 mph 1024.7mb - 46f
8:10am  -   -  7 11 mph 1024.8mb - 46f
8:00am 1.3ft 3s 7 11 mph 1024.7mb 47f 46f
7:50am  -   -  9 11 mph 1024.6mb - 46f
7:40am  -   -  9 11 mph 1024.6mb - 46f
7:30am  -   -  11 16 mph 1024.7mb - 46f
7:20am  -   -  11 16 mph 1024.7mb - 46f
7:10am  -   -  11 16 mph 1024.8mb - 46f
7:00am 1.3ft 3s 13 16 mph 1024.9mb 47f 46f
6:50am  -   -  13 16 mph 1024.7mb - 46f
6:40am  -   -  13 16 mph 1024.4mb - 46f
6:30am  -   -  13 16 mph 1024.2mb - 46f
6:20am  -   -  13 16 mph 1024.1mb - 46f
6:10am  -   -  13 18 mph 1024.1mb - 46f
6:00am 1.3ft 2s 13 18 mph 1023.9mb 48f 46f
5:50am  -   -  16 18 mph 1023.8mb - 46f
5:40am  -   -  16 18 mph 1023.8mb - 47f
5:30am  -   -  13 16 mph 1023.9mb - 47f
5:20am  -   -  13 16 mph 1024mb - 47f
5:10am  -   -  11 16 mph 1024mb - 47f
5:00am 1.6ft 3s 13 18 mph 1023.8mb 48f 47f
4:50am  -   -  13 18 mph 1023.7mb - 47f
4:40am  -   -  16 20 mph 1023.7mb - 47f
4:30am  -   -  18 20 mph 1023.6mb - 46f
4:20am  -   -  18 22 mph 1023.6mb - 46f
4:10am  -   -  20 25 mph 1023.6mb - 46f
4:00am 1.3ft 3s 20 22 mph 1023.7mb 48f 46f
3:50am  -   -  20 25 mph 1023.7mb - 46f
3:40am  -   -  20 22 mph 1023.7mb - 46f
3:30am  -   -  20 22 mph 1023.9mb - 45f
3:20am  -   -  18 22 mph 1024.2mb - 45f
3:10am  -   -  16 20 mph 1024.4mb - 45f
3:00am 1.3ft 3s 16 18 mph 1024.6mb 47f 45f
2:50am  -   -  16 18 mph 1024.8mb - 45f
2:40am  -   -  13 18 mph 1024.8mb - 45f
2:30am  -   -  16 18 mph 1024.9mb - 45f
2:20am  -   -  16 18 mph 1024.9mb - 45f
2:10am  -   -  16 18 mph 1025mb - 45f
2:00am 1.3ft 3s 16 18 mph 1025mb 47f 45f
1:50am  -   -  13 18 mph 1025.2mb - 45f
1:40am  -   -  13 18 mph 1025.2mb - 45f
1:30am  -   -  13 18 mph 1025.1mb - 45f
1:20am  -   -  13 18 mph 1025.2mb - 45f
1:10am  -   -  13 16 mph 1025.3mb - 45f
1:00am 1.3ft 2s 13 16 mph 1025.2mb 47f 45f
12:50am  -   -  13 16 mph 1025.2mb - 45f
12:40am  -   -  13 16 mph 1025.4mb - 45f
12:30am  -   -  16 18 mph 1025.5mb - 45f
12:20am  -   -  16 18 mph 1025.7mb - 45f
12:10am  -   -  16 20 mph 1025.7mb - 45f
12:00am 1.3ft 3s 16 20 mph 1025.7mb 47f 45f
Sat 11/22 11:50pm  -   -  16 20 mph 1025.7mb - 45f
11:40pm  -   -  13 16 mph 1025.8mb - 45f
11:30pm  -   -  11 16 mph 1026mb - 45f
11:20pm  -   -  11 16 mph 1026.1mb - 45f
11:10pm  -   -  11 13 mph 1026.2mb - 45f
11:00pm 1.3ft 3s 11 13 mph 1026.3mb 48f 45f
10:50pm  -   -  13 18 mph 1026.3mb - 45f
10:40pm  -   -  13 16 mph 1026.5mb - 45f
10:30pm  -   -  13 16 mph 1026.7mb - 45f
10:20pm  -   -  13 16 mph 1026.7mb - 45f
10:10pm  -   -  13 16 mph 1026.7mb - 45f
10:00pm 1.3ft 3s 16 18 mph 1026.6mb 48f 45f
9:50pm  -   -  16 20 mph 1026.5mb - 45f
9:40pm  -   -  18 20 mph 1026.5mb - 45f
9:30pm  -   -  16 20 mph 1026.5mb - 45f
9:20pm  -   -  16 18 mph 1026.6mb - 45f
9:10pm  -   -  16 18 mph 1026.6mb - 45f
9:00pm 1.3ft 3s 13 18 mph 1026.5mb 48f 45f